createdAt,value
2019-05-02T00:02:12.882Z,8.74
2019-05-02T00:04:39.856Z,8.64
2019-05-02T00:07:07.363Z,8.61
2019-05-02T00:09:35.115Z,8.67
2019-05-02T00:12:02.658Z,8.65
2019-05-02T00:14:29.852Z,8.70
2019-05-02T00:16:56.611Z,8.66
2019-05-02T00:19:23.658Z,8.58
2019-05-02T00:21:50.530Z,8.47
2019-05-02T00:24:17.436Z,8.44
2019-05-02T00:26:44.240Z,8.42
2019-05-02T00:29:11.014Z,8.35
2019-05-02T00:31:41.568Z,8.28
2019-05-02T00:34:06.353Z,8.09
2019-05-02T00:36:33.046Z,8.15
2019-05-02T00:38:59.815Z,8.10
2019-05-02T00:41:26.629Z,8.14
2019-05-02T00:43:53.246Z,8.11
2019-05-02T00:46:19.993Z,8.29
2019-05-02T00:48:54.302Z,8.49
2019-05-02T00:51:21.997Z,8.70
2019-05-02T00:53:50.027Z,8.83
2019-05-02T00:56:16.672Z,8.96
2019-05-02T00:58:43.468Z,9.04
2019-05-02T01:01:35.476Z,9.09
2019-05-02T01:04:08.466Z,9.12
2019-05-02T01:06:35.127Z,8.92
2019-05-02T01:09:05.878Z,8.89
2019-05-02T01:11:32.215Z,8.89
2019-05-02T01:13:59.071Z,8.74
2019-05-02T01:16:25.722Z,8.73
2019-05-02T01:18:52.405Z,8.73
2019-05-02T01:21:19.163Z,8.66
2019-05-02T01:24:05.540Z,8.76
2019-05-02T01:26:36.257Z,8.90
2019-05-02T01:29:13.748Z,8.73
2019-05-02T01:31:54.738Z,8.69
2019-05-02T01:34:30.205Z,8.57
2019-05-02T01:37:02.711Z,8.34
2019-05-02T01:39:29.498Z,8.24
2019-05-02T01:41:59.934Z,8.19
2019-05-02T01:44:25.182Z,8.07
2019-05-02T01:46:54.091Z,8.08
2019-05-02T01:49:21.855Z,7.94
2019-05-02T01:51:49.424Z,7.95
2019-05-02T01:54:16.124Z,7.96
2019-05-02T01:56:42.882Z,7.90
2019-05-02T01:59:09.556Z,7.83
2019-05-02T02:01:36.317Z,7.86
2019-05-02T02:04:03.415Z,8.08
2019-05-02T02:06:30.106Z,8.15
2019-05-02T02:08:56.863Z,8.12
2019-05-02T02:11:28.407Z,8.11
2019-05-02T02:13:52.406Z,8.13
2019-05-02T02:16:19.183Z,8.14
2019-05-02T02:18:52.895Z,8.20
2019-05-02T02:21:38.024Z,8.31
2019-05-02T02:24:08.761Z,8.25
2019-05-02T02:26:35.148Z,8.34
2019-05-02T02:29:03.090Z,8.32
2019-05-02T02:31:30.869Z,8.39
2019-05-02T02:33:57.537Z,8.35
2019-05-02T02:36:31.482Z,8.43
2019-05-02T02:38:52.868Z,8.25
2019-05-02T02:41:19.650Z,8.32
2019-05-02T02:44:03.318Z,8.33
2019-05-02T02:46:37.799Z,8.27
2019-05-02T02:49:00.426Z,8.30
2019-05-02T02:51:27.403Z,8.37
2019-05-02T02:54:03.130Z,8.18
2019-05-02T02:56:23.068Z,8.19
2019-05-02T02:58:49.798Z,8.20
2019-05-02T03:01:27.347Z,8.19
2019-05-02T03:03:45.464Z,8.29
2019-05-02T03:06:12.256Z,8.37
2019-05-02T03:08:46.626Z,8.33
2019-05-02T03:11:10.021Z,8.08
2019-05-02T03:14:05.688Z,8.13
2019-05-02T03:16:28.646Z,8.00
2019-05-02T03:18:55.642Z,7.98
2019-05-02T03:21:22.782Z,8.03
2019-05-02T03:24:02.188Z,7.92
2019-05-02T03:26:18.336Z,8.02
2019-05-02T03:28:45.094Z,7.97
2019-05-02T03:31:23.621Z,7.98
2019-05-02T03:33:54.258Z,7.90
2019-05-02T03:36:26.169Z,7.94
2019-05-02T03:38:38.856Z,8.01
2019-05-02T03:41:05.831Z,7.97
2019-05-02T03:43:32.621Z,7.96
2019-05-02T03:45:59.815Z,8.00
2019-05-02T03:48:27.768Z,8.00
2019-05-02T03:50:55.323Z,7.99
2019-05-02T03:53:25.450Z,8.13
2019-05-02T03:55:51.907Z,8.17
2019-05-02T03:58:18.695Z,8.08
2019-05-02T04:00:45.470Z,8.17
2019-05-02T04:03:13.405Z,8.22
2019-05-02T04:05:42.077Z,7.99
2019-05-02T04:08:19.977Z,7.97
2019-05-02T04:11:21.914Z,8.00
2019-05-02T04:13:50.031Z,8.14
2019-05-02T04:16:17.831Z,7.92
2019-05-02T04:18:54.722Z,7.86
2019-05-02T04:21:14.195Z,7.72
2019-05-02T04:23:41.435Z,7.78
2019-05-02T04:26:12.829Z,7.80
2019-05-02T04:28:37.108Z,7.79
2019-05-02T04:31:03.881Z,7.82
2019-05-02T04:33:34.985Z,7.94
2019-05-02T04:35:59.711Z,8.04
2019-05-02T04:38:31.748Z,7.89
2019-05-02T04:40:55.315Z,7.83
2019-05-02T04:43:23.431Z,7.71
2019-05-02T04:45:55.969Z,7.93
2019-05-02T04:48:18.950Z,7.75
2019-05-02T04:50:48.267Z,7.88
2019-05-02T04:53:14.082Z,7.73
2019-05-02T04:55:40.738Z,7.84
2019-05-02T04:58:08.381Z,7.88
2019-05-02T05:00:35.365Z,7.80
2019-05-02T05:03:21.694Z,7.76
2019-05-02T05:05:48.392Z,7.73
2019-05-02T05:08:19.637Z,7.75
2019-05-02T05:10:45.025Z,7.77
2019-05-02T05:13:12.223Z,7.64
2019-05-02T05:15:48.468Z,7.60
2019-05-02T05:18:10.499Z,7.74
2019-05-02T05:20:40.387Z,7.81
2019-05-02T05:23:08.202Z,7.82
2019-05-02T05:25:50.778Z,7.83
2019-05-02T05:28:20.063Z,7.87
2019-05-02T05:30:49.635Z,7.78
2019-05-02T05:33:15.467Z,7.73
2019-05-02T05:35:43.407Z,7.85
2019-05-02T05:38:10.629Z,7.94
2019-05-02T05:40:37.685Z,7.92
2019-05-02T05:43:14.165Z,7.82
2019-05-02T05:45:33.090Z,7.98
2019-05-02T05:48:01.201Z,7.92
2019-05-02T05:50:32.252Z,7.95
2019-05-02T05:52:59.267Z,7.92
2019-05-02T05:55:25.066Z,7.93
2019-05-02T05:57:59.691Z,7.96
2019-05-02T06:00:23.202Z,7.93
2019-05-02T06:02:53.954Z,7.84
2019-05-02T06:05:17.897Z,8.07
2019-05-02T06:07:45.055Z,8.14
2019-05-02T06:10:12.735Z,8.08
2019-05-02T06:12:39.416Z,8.04
2019-05-02T06:15:06.264Z,7.95
2019-05-02T06:17:33.002Z,7.95
2019-05-02T06:19:59.686Z,8.09
2019-05-02T06:22:26.401Z,8.12
2019-05-02T06:24:53.057Z,8.04
2019-05-02T06:27:20.808Z,8.12
2019-05-02T06:29:51.293Z,7.99
2019-05-02T06:32:19.361Z,8.25
2019-05-02T06:34:47.553Z,8.35
2019-05-02T06:37:15.499Z,8.48
2019-05-02T06:39:42.489Z,8.55
2019-05-02T06:42:09.178Z,8.44
2019-05-02T06:44:35.954Z,8.42
2019-05-02T06:47:04.237Z,8.49
2019-05-02T06:49:31.316Z,8.38
2019-05-02T06:51:58.034Z,8.12
2019-05-02T06:54:24.624Z,8.14
2019-05-02T06:56:51.269Z,8.29
2019-05-02T06:59:20.157Z,8.28
2019-05-02T07:01:46.608Z,8.45
2019-05-02T07:04:17.332Z,8.59
2019-05-02T07:06:57.591Z,8.53
2019-05-02T07:09:10.865Z,8.44
2019-05-02T07:11:40.942Z,8.43
2019-05-02T07:14:13.698Z,8.55
2019-05-02T07:16:42.012Z,8.52
2019-05-02T07:19:29.426Z,8.56
2019-05-02T07:21:58.644Z,8.45
2019-05-02T07:24:25.236Z,8.69
2019-05-02T07:26:56.937Z,8.45
2019-05-02T07:29:23.103Z,8.54
2019-05-02T07:31:49.999Z,8.57
2019-05-02T07:34:16.783Z,8.82
2019-05-02T07:36:43.462Z,8.54
2019-05-02T07:41:51.434Z,8.84
2019-05-02T07:44:18.206Z,9.03
2019-05-02T07:46:51.728Z,9.16
2019-05-02T07:49:13.676Z,9.18
2019-05-02T07:51:40.321Z,8.89
2019-05-02T07:54:07.099Z,9.06
2019-05-02T07:56:33.881Z,9.13
2019-05-02T07:59:00.663Z,9.20
2019-05-02T08:01:27.417Z,9.36
2019-05-02T08:03:54.193Z,9.53
2019-05-02T08:06:34.347Z,9.53
2019-05-02T08:08:49.676Z,9.29
2019-05-02T08:11:16.489Z,9.26
2019-05-02T08:13:43.117Z,9.50
2019-05-02T08:16:29.450Z,9.52
2019-05-02T08:18:56.176Z,9.37
2019-05-02T08:21:27.326Z,9.55
2019-05-02T08:23:51.293Z,9.36
2019-05-02T08:26:21.803Z,9.12
2019-05-02T08:28:53.254Z,9.40
2019-05-02T08:31:20.979Z,9.29
2019-05-02T08:33:47.865Z,9.42
2019-05-02T08:36:14.529Z,9.81
2019-05-02T08:38:41.311Z,9.81
2019-05-02T08:41:08.080Z,9.27
2019-05-02T08:43:34.852Z,9.39
2019-05-02T08:46:01.946Z,9.34
2019-05-02T08:48:28.925Z,9.40
2019-05-02T08:50:55.694Z,9.61
2019-05-02T08:53:22.560Z,9.71
2019-05-02T08:55:49.343Z,9.53
2019-05-02T08:58:16.226Z,9.78
2019-05-02T09:00:43.431Z,9.77
2019-05-02T09:03:10.078Z,9.60
2019-05-02T09:05:45.327Z,9.62
2019-05-02T09:08:09.336Z,9.74
2019-05-02T09:10:37.096Z,9.92
2019-05-02T09:13:03.105Z,10.13
2019-05-02T09:15:31.671Z,9.88
2019-05-02T09:17:58.446Z,9.98
2019-05-02T09:20:25.223Z,10.08
2019-05-02T09:22:55.818Z,10.30
2019-05-02T09:25:21.971Z,10.23
2019-05-02T09:27:48.896Z,10.21
2019-05-02T09:30:25.810Z,10.30
2019-05-02T09:32:52.307Z,10.44
2019-05-02T09:35:19.263Z,10.73
2019-05-02T09:37:45.956Z,10.59
2019-05-02T09:40:16.671Z,10.95
2019-05-02T09:42:42.990Z,10.74
2019-05-02T09:45:16.153Z,10.90
2019-05-02T09:47:56.760Z,10.92
2019-05-02T09:50:20.589Z,11.07
2019-05-02T09:52:45.537Z,10.99
2019-05-02T09:55:14.847Z,10.92
2019-05-02T09:57:42.797Z,11.11
2019-05-02T10:00:13.783Z,11.00
2019-05-02T10:02:41.865Z,11.22
2019-05-02T10:05:09.553Z,11.46
2019-05-02T10:07:36.307Z,11.43
2019-05-02T10:10:06.615Z,11.64
2019-05-02T10:12:32.925Z,11.56
2019-05-02T10:14:59.697Z,11.50
2019-05-02T10:17:28.073Z,11.54
2019-05-02T10:19:57.146Z,11.88
2019-05-02T10:22:26.491Z,12.14
2019-05-02T10:24:52.398Z,12.43
2019-05-02T10:27:19.062Z,11.98
2019-05-02T10:29:45.722Z,11.79
2019-05-02T10:32:16.558Z,11.72
2019-05-02T10:34:42.259Z,11.52
2019-05-02T10:37:09.167Z,11.42
2019-05-02T10:39:37.855Z,11.98
2019-05-02T10:42:04.557Z,11.92
2019-05-02T10:44:32.740Z,12.08
2019-05-02T10:46:59.903Z,12.36
2019-05-02T10:49:42.650Z,12.23
2019-05-02T10:52:12.270Z,12.46
2019-05-02T10:54:42.050Z,13.26
2019-05-02T10:57:08.958Z,13.03
2019-05-02T10:59:35.625Z,12.72
2019-05-02T11:02:22.287Z,13.19
2019-05-02T11:04:52.645Z,13.69
2019-05-02T11:07:22.636Z,14.64
2019-05-02T11:09:47.956Z,14.56
2019-05-02T11:12:24.230Z,14.34
2019-05-02T11:15:07.680Z,14.49
2019-05-02T11:17:42.336Z,14.90
2019-05-02T11:20:12.328Z,14.74
2019-05-02T11:22:39.319Z,15.89
2019-05-02T11:25:08.765Z,18.32
2019-05-02T11:27:48.174Z,18.16
2019-05-02T11:30:16.803Z,17.37
2019-05-02T11:32:44.379Z,16.49
2019-05-02T11:35:12.178Z,16.08
2019-05-02T11:37:39.024Z,15.36
2019-05-02T11:40:07.509Z,16.23
2019-05-02T11:42:35.873Z,16.51
2019-05-02T11:45:03.369Z,16.55
2019-05-02T11:47:32.878Z,17.07
2019-05-02T11:50:04.317Z,18.14
2019-05-02T11:52:32.990Z,17.08
2019-05-02T11:55:02.084Z,16.78
2019-05-02T11:57:32.545Z,16.99
2019-05-02T11:59:59.371Z,16.49
2019-05-02T12:02:49.096Z,15.60
2019-05-02T12:05:17.311Z,15.20
2019-05-02T12:07:44.159Z,14.98
2019-05-02T12:10:12.514Z,14.51
2019-05-02T12:12:39.418Z,15.09
2019-05-02T12:15:06.432Z,15.90
2019-05-02T12:17:33.232Z,15.89
2019-05-02T12:20:01.929Z,16.29
2019-05-02T12:22:28.656Z,16.04
2019-05-02T12:24:55.800Z,16.01
2019-05-02T12:27:22.586Z,15.80
2019-05-02T12:29:57.293Z,16.60
2019-05-02T12:32:18.080Z,17.14
2019-05-02T12:34:44.875Z,17.20
2019-05-02T12:37:12.624Z,18.19
2019-05-02T12:39:39.828Z,17.04
2019-05-02T12:42:07.185Z,16.25
2019-05-02T12:44:34.287Z,15.56
2019-05-02T12:47:02.608Z,15.37
2019-05-02T12:49:29.531Z,15.26
2019-05-02T12:51:56.702Z,15.44
2019-05-02T12:54:23.625Z,15.66
2019-05-02T12:56:52.881Z,16.03
2019-05-02T12:59:20.006Z,16.30
2019-05-02T13:01:47.268Z,16.92
2019-05-02T13:04:14.230Z,16.67
2019-05-02T13:06:42.273Z,16.84
2019-05-02T13:09:09.783Z,16.72
2019-05-02T13:12:02.825Z,17.23
2019-05-02T13:14:31.962Z,17.62
2019-05-02T13:17:03.793Z,19.26
2019-05-02T13:19:38.092Z,21.17
2019-05-02T13:22:28.213Z,21.44
2019-05-02T13:25:02.218Z,19.64
2019-05-02T13:27:32.207Z,17.29
2019-05-02T13:29:58.201Z,16.60
2019-05-02T13:32:32.131Z,16.43
2019-05-02T13:35:08.380Z,16.27
2019-05-02T13:37:35.276Z,16.21
2019-05-02T13:40:11.992Z,16.04
2019-05-02T13:42:38.852Z,15.90
2019-05-02T13:45:18.688Z,15.53
2019-05-02T13:47:45.569Z,15.91
2019-05-02T13:50:13.004Z,15.90
2019-05-02T13:52:39.748Z,15.93
2019-05-02T13:55:07.426Z,15.56
2019-05-02T13:57:41.915Z,15.52
2019-05-02T14:00:04.876Z,16.07
2019-05-02T14:02:37.665Z,15.84
2019-05-02T14:05:06.147Z,15.61
2019-05-02T14:07:32.853Z,16.31
2019-05-02T14:10:02.708Z,16.26
2019-05-02T14:12:49.137Z,16.35
2019-05-02T14:15:37.528Z,15.87
2019-05-02T14:18:04.721Z,15.86
2019-05-02T14:20:33.132Z,15.58
2019-05-02T14:23:02.003Z,15.41
2019-05-02T14:25:28.749Z,15.30
2019-05-02T14:27:55.823Z,15.25
2019-05-02T14:30:46.387Z,15.20
2019-05-02T14:33:17.590Z,15.33
2019-05-02T14:35:44.652Z,15.24
2019-05-02T14:38:32.109Z,15.27
2019-05-02T14:41:21.606Z,15.48
2019-05-02T14:43:48.579Z,15.53
2019-05-02T14:46:17.852Z,15.75
2019-05-02T14:48:45.506Z,15.81
2019-05-02T14:51:16.611Z,16.10
2019-05-02T14:53:43.043Z,16.25
2019-05-02T14:56:14.506Z,16.14
2019-05-02T14:58:42.720Z,15.65
2019-05-02T15:01:09.508Z,15.62
2019-05-02T15:03:36.194Z,15.71
2019-05-02T15:06:24.399Z,15.67
2019-05-02T15:08:52.608Z,15.57
2019-05-02T15:11:19.433Z,15.59
2019-05-02T15:13:46.102Z,15.62
2019-05-02T15:16:17.651Z,15.87
2019-05-02T15:18:42.018Z,15.76
2019-05-02T15:21:16.357Z,15.78
2019-05-02T15:23:42.315Z,15.80
2019-05-02T15:26:11.697Z,15.68
2019-05-02T15:28:39.339Z,15.62
2019-05-02T15:31:11.789Z,15.35
2019-05-02T15:33:45.818Z,15.17
2019-05-02T15:36:12.894Z,15.02
2019-05-02T15:38:47.140Z,15.04
2019-05-02T15:41:12.825Z,14.87
2019-05-02T15:43:39.292Z,14.34
2019-05-02T15:46:08.565Z,14.06
2019-05-02T15:48:35.136Z,13.79
2019-05-02T15:51:06.197Z,13.61
2019-05-02T15:53:44.599Z,13.58
2019-05-02T15:56:18.689Z,13.56
2019-05-02T15:58:39.176Z,13.85
2019-05-02T16:01:25.285Z,14.29
2019-05-02T16:03:56.187Z,14.43
2019-05-02T16:06:30.562Z,14.13
2019-05-02T16:08:54.329Z,14.12
2019-05-02T16:11:23.011Z,13.95
2019-05-02T16:13:52.752Z,13.95
2019-05-02T16:16:21.871Z,14.02
2019-05-02T16:18:48.690Z,13.97
2019-05-02T16:21:28.404Z,13.51
2019-05-02T16:24:11.212Z,13.14
2019-05-02T16:26:42.722Z,12.84
2019-05-02T16:29:06.770Z,13.04
2019-05-02T16:31:35.477Z,12.94
2019-05-02T16:34:02.388Z,13.04
2019-05-02T16:36:33.788Z,12.94
2019-05-02T16:38:57.906Z,12.96
2019-05-02T16:41:24.596Z,12.84
2019-05-02T16:43:52.324Z,12.88
2019-05-02T16:46:19.027Z,12.75
2019-05-02T16:48:45.785Z,12.59
2019-05-02T16:51:30.011Z,12.52
2019-05-02T16:53:42.720Z,12.29
2019-05-02T16:56:11.454Z,12.26
2019-05-02T16:58:45.324Z,12.05
2019-05-02T17:01:06.931Z,11.93
2019-05-02T17:03:33.700Z,11.93
2019-05-02T17:06:01.687Z,11.85
2019-05-02T17:08:38.614Z,11.78
2019-05-02T17:11:15.881Z,11.81
2019-05-02T17:13:42.739Z,11.69
2019-05-02T17:16:13.163Z,11.61
2019-05-02T17:18:37.987Z,11.55
2019-05-02T17:21:04.799Z,11.50
2019-05-02T17:23:32.887Z,11.60
2019-05-02T17:26:01.607Z,11.57
2019-05-02T17:28:28.487Z,11.60
2019-05-02T17:30:55.177Z,11.58
2019-05-02T17:33:21.895Z,11.53
2019-05-02T17:35:49.808Z,11.54
2019-05-02T17:38:19.128Z,11.53
2019-05-02T17:40:46.092Z,11.44
2019-05-02T17:43:13.380Z,11.50
2019-05-02T17:45:40.362Z,11.60
2019-05-02T17:48:10.420Z,11.43
2019-05-02T17:51:04.506Z,11.56
2019-05-02T17:53:33.512Z,11.63
2019-05-02T17:56:01.924Z,11.59
2019-05-02T17:58:28.906Z,11.46
2019-05-02T18:01:00.133Z,11.36
2019-05-02T18:03:31.024Z,11.46
2019-05-02T18:05:54.922Z,11.32
2019-05-02T18:08:21.963Z,11.32
2019-05-02T18:10:50.699Z,11.37
2019-05-02T18:13:17.372Z,11.32
2019-05-02T18:15:44.121Z,11.32
2019-05-02T18:18:10.880Z,11.40
2019-05-02T18:20:42.732Z,11.40
2019-05-02T18:23:06.352Z,11.41
2019-05-02T18:25:33.138Z,11.37
2019-05-02T18:27:59.914Z,11.38
2019-05-02T18:30:27.103Z,11.39
2019-05-02T18:32:57.862Z,11.43
2019-05-02T18:35:22.558Z,11.39
2019-05-02T18:37:49.410Z,11.45
2019-05-02T18:40:20.250Z,11.41
2019-05-02T18:42:45.144Z,11.19
2019-05-02T18:45:18.858Z,11.22
2019-05-02T18:47:46.357Z,11.29
2019-05-02T18:50:31.911Z,11.28
2019-05-02T18:52:59.293Z,11.23
2019-05-02T18:55:26.175Z,11.18
2019-05-02T18:57:57.022Z,11.16
2019-05-02T19:00:22.900Z,11.26
2019-05-02T19:02:50.189Z,11.26
2019-05-02T19:05:19.521Z,11.29
2019-05-02T19:07:47.415Z,11.24
2019-05-02T19:10:15.055Z,11.22
2019-05-02T19:12:42.066Z,11.24
2019-05-02T19:15:09.341Z,11.25
2019-05-02T19:17:38.375Z,11.14
2019-05-02T19:20:11.027Z,11.21
2019-05-02T19:22:48.133Z,11.21
2019-05-02T19:25:06.841Z,11.18
2019-05-02T19:27:57.669Z,11.14
2019-05-02T19:30:27.236Z,11.20
2019-05-02T19:32:57.845Z,11.21
2019-05-02T19:35:22.787Z,11.27
2019-05-02T19:37:49.610Z,11.22
2019-05-02T19:40:26.864Z,11.22
2019-05-02T19:42:48.943Z,11.26
2019-05-02T19:45:16.806Z,11.09
2019-05-02T19:47:43.813Z,11.10
2019-05-02T19:50:56.840Z,11.09
2019-05-02T19:53:23.623Z,11.15
2019-05-02T19:55:52.040Z,11.08
2019-05-02T19:58:19.029Z,11.11
2019-05-02T20:00:46.494Z,11.09
2019-05-02T20:03:21.554Z,11.12
2019-05-02T20:05:43.478Z,11.13
2019-05-02T20:08:14.799Z,10.92
2019-05-02T20:10:39.243Z,10.93
2019-05-02T20:13:08.374Z,10.89
2019-05-02T20:15:38.581Z,10.90
2019-05-02T20:18:05.398Z,10.89
2019-05-02T20:20:41.917Z,10.83
2019-05-02T20:23:15.415Z,10.76
2019-05-02T20:25:39.185Z,10.81
2019-05-02T20:28:06.061Z,10.90
2019-05-02T20:30:32.899Z,10.80
2019-05-02T20:33:02.153Z,10.79
2019-05-02T20:35:31.886Z,10.82
2019-05-02T20:37:58.644Z,10.85
2019-05-02T20:40:27.502Z,10.81
2019-05-02T20:42:54.305Z,10.81
2019-05-02T20:45:22.769Z,10.77
2019-05-02T20:47:52.383Z,10.74
2019-05-02T20:50:19.324Z,10.78
2019-05-02T20:52:46.405Z,10.67
2019-05-02T20:55:13.187Z,10.75
2019-05-02T20:57:39.943Z,10.69
2019-05-02T21:00:09.090Z,10.74
2019-05-02T21:02:35.864Z,10.77
2019-05-02T21:05:02.916Z,10.64
2019-05-02T21:07:38.304Z,10.68
2019-05-02T21:10:18.778Z,10.64
2019-05-02T21:12:45.467Z,10.64
2019-05-02T21:15:12.986Z,10.55
2019-05-02T21:17:39.778Z,10.48
2019-05-02T21:20:07.215Z,10.41
2019-05-02T21:22:55.293Z,10.49
2019-05-02T21:25:24.956Z,10.37
2019-05-02T21:27:52.359Z,10.28
2019-05-02T21:30:25.002Z,10.27
2019-05-02T21:32:52.098Z,10.26
2019-05-02T21:35:18.979Z,10.19
2019-05-02T21:37:45.562Z,10.40
2019-05-02T21:40:25.763Z,10.35
2019-05-02T21:42:53.375Z,10.22
2019-05-02T21:45:22.160Z,10.20
2019-05-02T21:47:48.774Z,10.13
2019-05-02T21:50:51.059Z,10.00
2019-05-02T21:53:54.942Z,9.98
2019-05-02T21:56:25.735Z,9.91
2019-05-02T21:59:04.798Z,9.87
2019-05-02T22:01:33.033Z,9.88
2019-05-02T22:03:59.870Z,9.72
2019-05-02T22:06:26.921Z,9.50
2019-05-02T22:08:53.690Z,9.42
2019-05-02T22:11:22.511Z,9.29
2019-05-02T22:13:49.123Z,9.16
2019-05-02T22:16:15.875Z,9.03
2019-05-02T22:18:43.035Z,8.92
2019-05-02T22:21:09.697Z,8.75
2019-05-02T22:23:36.403Z,8.57
2019-05-02T22:26:03.483Z,8.43
2019-05-02T22:28:30.195Z,8.30
2019-05-02T22:30:58.012Z,8.14
2019-05-02T22:33:24.828Z,8.28
2019-05-02T22:35:52.370Z,8.27
2019-05-02T22:38:39.750Z,8.19
2019-05-02T22:41:06.577Z,8.24
2019-05-02T22:43:33.256Z,8.29
2019-05-02T22:46:00.030Z,8.21
2019-05-02T22:48:26.682Z,8.24
2019-05-02T22:50:53.426Z,8.22
2019-05-02T22:53:21.602Z,8.19
2019-05-02T22:55:48.810Z,8.22
2019-05-02T22:58:15.471Z,8.35
2019-05-02T23:00:42.134Z,8.41
2019-05-02T23:03:08.822Z,8.40
2019-05-02T23:05:36.303Z,8.41
2019-05-02T23:08:03.447Z,8.54
2019-05-02T23:10:30.122Z,8.58
2019-05-02T23:12:56.892Z,8.58
2019-05-02T23:15:25.858Z,8.57
2019-05-02T23:17:52.612Z,8.62
2019-05-02T23:20:19.386Z,8.56
2019-05-02T23:22:46.151Z,8.62
2019-05-02T23:25:32.232Z,8.54
2019-05-02T23:28:05.968Z,8.55
2019-05-02T23:30:33.042Z,8.68
2019-05-02T23:32:59.975Z,8.64
2019-05-02T23:35:26.669Z,8.68
2019-05-02T23:37:53.346Z,8.73
2019-05-02T23:40:20.116Z,8.67
2019-05-02T23:42:46.776Z,8.65
2019-05-02T23:45:13.993Z,8.63
2019-05-02T23:47:42.177Z,8.74
2019-05-02T23:50:09.331Z,8.69
2019-05-02T23:52:36.093Z,8.67
2019-05-02T23:55:03.136Z,8.67
2019-05-02T23:57:32.419Z,8.68
2019-05-02T23:59:59.458Z,8.69
